Time;durP1;ratioP1;P1;durP2;ratioP2;P2;SDS_P1;SDS_P2;PMS_P1;PMS_P2;Temp;Humidity;BMP_temperature;BMP_pressure;BME280_temperature;BME280_humidity;BME280_pressure;Samples;Min_cycle;Max_cycle;Signal;HPM_P1;HPM_P2
2021/06/30 00:01:45;;;;;;;13.93;12.60;;;;;;;25.25;69.21;94812.50;5071553;28;20506;-80
2021/06/30 00:04:12;;;;;;;16.63;13.40;;;;;;;25.19;69.39;94814.19;5071587;28;20467;-78
2021/06/30 00:06:39;;;;;;;13.60;12.30;;;;;;;25.10;69.90;94810.13;5071578;28;20498;-80
2021/06/30 00:09:06;;;;;;;13.77;12.40;;;;;;;25.06;70.19;94808.94;5035955;28;20858;-80
2021/06/30 00:11:33;;;;;;;13.27;12.03;;;;;;;25.04;69.95;94818.25;5071731;28;20484;-79
2021/06/30 00:14:02;;;;;;;13.93;12.40;;;;;;;24.96;70.38;94805.91;5071540;28;20444;-79
2021/06/30 00:16:31;;;;;;;12.70;11.60;;;;;;;24.98;70.70;94819.94;5070954;28;20545;-79
2021/06/30 00:18:59;;;;;;;15.60;11.90;;;;;;;24.93;70.59;94817.09;5071315;28;20862;-80
2021/06/30 00:21:26;;;;;;;13.27;11.97;;;;;;;24.93;70.97;94822.47;5071119;28;20530;-78
2021/06/30 00:23:53;;;;;;;12.23;11.23;;;;;;;24.88;70.49;94814.25;5071240;28;20436;-78
2021/06/30 00:26:20;;;;;;;13.67;12.57;;;;;;;24.89;71.09;94813.22;5071758;28;20451;-77
2021/06/30 00:28:47;;;;;;;16.83;12.70;;;;;;;24.85;71.40;94817.38;5019127;28;20838;-77
2021/06/30 00:31:17;;;;;;;14.30;12.37;;;;;;;24.69;72.10;94822.25;5071321;28;20534;-80
2021/06/30 00:33:44;;;;;;;15.23;12.90;;;;;;;24.72;72.06;94826.38;5071482;28;20456;-78
2021/06/30 00:36:12;;;;;;;13.07;11.73;;;;;;;24.69;72.14;94827.63;5071140;28;20537;-78
2021/06/30 00:38:39;;;;;;;13.53;12.10;;;;;;;24.70;71.94;94831.94;5071163;28;20443;-78
2021/06/30 00:41:06;;;;;;;14.87;12.23;;;;;;;24.70;71.68;94823.91;5021626;28;20505;-78
2021/06/30 00:43:33;;;;;;;16.80;12.80;;;;;;;24.74;71.87;94836.88;5074904;28;20447;-78
2021/06/30 00:46:00;;;;;;;17.90;12.80;;;;;;;24.73;72.20;94837.91;5074699;28;20448;-78
2021/06/30 00:48:28;;;;;;;16.27;12.60;;;;;;;24.70;72.27;94831.13;5074709;28;20931;-78
2021/06/30 00:50:56;;;;;;;15.80;14.20;;;;;;;24.68;72.59;94834.03;5074784;28;20445;-78
2021/06/30 00:53:23;;;;;;;17.90;13.20;;;;;;;24.69;72.16;94837.53;5074403;28;20984;-78
2021/06/30 00:55:51;;;;;;;25.43;14.47;;;;;;;24.65;72.37;94842.53;5022999;28;20488;-78
2021/06/30 00:58:18;;;;;;;19.03;14.30;;;;;;;24.63;72.88;94841.91;5074438;28;20439;-78
2021/06/30 01:00:50;;;;;;;13.40;11.57;;;;;;;24.56;72.89;94843.81;5022799;28;20444;-78
2021/06/30 01:03:18;;;;;;;13.97;12.63;;;;;;;24.54;72.92;94837.84;5039192;28;20440;-78
2021/06/30 01:05:46;;;;;;;21.60;13.23;;;;;;;24.53;73.25;94844.25;5074411;28;20513;-78
2021/06/30 01:08:13;;;;;;;14.10;12.77;;;;;;;24.52;73.08;94839.91;5074547;28;20492;-78
2021/06/30 01:10:40;;;;;;;12.87;11.57;;;;;;;24.54;73.17;94845.88;5074794;28;20501;-78
2021/06/30 01:13:08;;;;;;;13.67;12.33;;;;;;;24.52;73.63;94847.16;5074406;28;20506;-79
2021/06/30 01:15:47;;;;;;;13.43;11.87;;;;;;;24.47;73.56;94842.44;5074236;28;20515;-78
2021/06/30 01:18:14;;;;;;;15.40;13.90;;;;;;;24.47;73.50;94839.75;5074853;28;20514;-78
2021/06/30 01:20:41;;;;;;;14.00;12.63;;;;;;;24.48;73.36;94840.56;5074365;28;20444;-78
2021/06/30 01:23:12;;;;;;;14.10;12.80;;;;;;;24.49;73.67;94840.34;5074459;28;21160;-78
2021/06/30 01:25:39;;;;;;;14.70;13.10;;;;;;;24.50;73.67;94828.59;5074248;28;20444;-78
2021/06/30 01:28:06;;;;;;;13.67;12.47;;;;;;;24.52;73.36;94836.41;5074102;28;20452;-78
2021/06/30 01:30:34;;;;;;;17.83;12.87;;;;;;;24.49;73.23;94828.81;5074036;28;20789;-78
2021/06/30 01:33:01;;;;;;;14.83;13.23;;;;;;;24.48;73.58;94829.84;5073968;28;20447;-78
2021/06/30 01:35:28;;;;;;;14.30;12.63;;;;;;;24.47;73.45;94830.88;5022341;28;20991;-78
2021/06/30 01:37:55;;;;;;;13.30;12.10;;;;;;;24.44;73.39;94829.47;5074503;28;20932;-78
2021/06/30 01:40:24;;;;;;;14.60;13.30;;;;;;;24.40;73.59;94822.88;5074474;28;20859;-78
2021/06/30 01:42:55;;;;;;;15.03;13.57;;;;;;;24.39;73.92;94821.25;5073758;28;20506;-78
2021/06/30 01:45:22;;;;;;;14.50;13.30;;;;;;;24.37;73.67;94826.00;5073865;28;20661;-78
2021/06/30 01:47:50;;;;;;;15.80;13.53;;;;;;;24.33;73.80;94824.81;5073734;28;20484;-78
2021/06/30 01:50:17;;;;;;;15.13;12.73;;;;;;;24.26;74.06;94832.00;5073751;28;20942;-78
2021/06/30 01:52:45;;;;;;;14.00;12.70;;;;;;;24.26;73.85;94829.31;5073553;28;20479;-78
2021/06/30 01:55:15;;;;;;;17.23;12.90;;;;;;;24.22;74.08;94836.16;5073210;28;20906;-78
2021/06/30 01:57:44;;;;;;;14.77;13.40;;;;;;;24.23;74.11;94837.81;5073452;28;20440;-78
2021/06/30 02:00:13;;;;;;;15.63;14.10;;;;;;;24.16;74.92;94842.41;5073564;28;20447;-78
2021/06/30 02:02:40;;;;;;;17.50;13.30;;;;;;;24.16;74.44;94845.06;5073312;28;20444;-78
2021/06/30 02:05:10;;;;;;;14.90;13.43;;;;;;;24.12;74.91;94833.97;5021739;28;20471;-78
2021/06/30 02:07:37;;;;;;;15.07;13.80;;;;;;;24.10;75.06;94836.03;5073404;28;20504;-78
2021/06/30 02:10:07;;;;;;;15.07;13.63;;;;;;;24.09;74.97;94840.56;5073428;28;20444;-78
2021/06/30 02:12:35;;;;;;;15.17;13.67;;;;;;;24.05;75.21;94838.53;5073089;28;20583;-78
2021/06/30 02:15:06;;;;;;;15.27;13.70;;;;;;;24.04;75.31;94839.59;5073313;28;20501;-79
2021/06/30 02:17:33;;;;;;;14.27;12.97;;;;;;;23.99;75.28;94842.06;5073211;28;20448;-78
2021/06/30 02:20:00;;;;;;;16.17;14.27;;;;;;;23.90;75.95;94838.81;5073491;28;20482;-78
2021/06/30 02:22:27;;;;;;;16.87;15.20;;;;;;;23.87;75.97;94839.25;5073190;28;20442;-78
2021/06/30 02:24:56;;;;;;;15.10;13.53;;;;;;;23.74;76.76;94836.63;5072912;28;20588;-78
2021/06/30 02:27:23;;;;;;;15.93;13.20;;;;;;;23.78;76.88;94838.66;5073117;28;20456;-78
2021/06/30 02:29:50;;;;;;;15.30;13.70;;;;;;;23.79;77.07;94842.16;5072603;28;20534;-78
2021/06/30 02:32:18;;;;;;;16.50;14.80;;;;;;;23.78;77.37;94843.22;5073010;28;20486;-78
2021/06/30 02:34:45;;;;;;;16.03;14.43;;;;;;;23.66;78.11;94837.66;5072985;28;20448;-78
2021/06/30 02:37:12;;;;;;;16.90;15.30;;;;;;;23.61;78.32;94839.34;5072646;28;20519;-78
2021/06/30 02:39:39;;;;;;;16.03;14.30;;;;;;;23.56;78.99;94853.38;5072519;28;20521;-78
2021/06/30 02:42:06;;;;;;;15.93;14.20;;;;;;;23.57;78.79;94849.66;5020874;28;20445;-78
2021/06/30 02:44:33;;;;;;;17.63;14.37;;;;;;;23.55;79.12;94856.25;5072969;28;20460;-78
2021/06/30 02:47:00;;;;;;;16.07;14.67;;;;;;;23.54;78.91;94855.41;5072594;28;20875;-78
2021/06/30 02:49:29;;;;;;;16.80;15.13;;;;;;;23.55;78.71;94862.41;5072461;28;20534;-79
2021/06/30 02:51:56;;;;;;;17.23;15.53;;;;;;;23.53;79.09;94855.63;5072326;28;20891;-78
2021/06/30 02:54:22;;;;;;;23.93;14.47;;;;;;;23.46;79.04;94853.78;5072548;28;20564;-79
2021/06/30 02:56:49;;;;;;;16.50;15.00;;;;;;;23.37;79.88;94865.75;5072186;28;20565;-78
2021/06/30 02:59:16;;;;;;;18.77;15.60;;;;;;;23.42;80.05;94868.66;5072188;28;20446;-78
2021/06/30 03:01:43;;;;;;;23.30;16.27;;;;;;;23.42;80.47;94870.50;5036932;28;20446;-79
2021/06/30 03:04:10;;;;;;;18.37;15.37;;;;;;;23.51;80.17;94865.72;5071572;28;20570;-79
2021/06/30 03:06:38;;;;;;;17.20;15.70;;;;;;;23.54;79.43;94870.66;5071835;28;20895;-78
2021/06/30 03:09:05;;;;;;;17.27;15.47;;;;;;;23.59;79.83;94873.56;5072503;28;20535;-80
2021/06/30 03:11:32;;;;;;;17.73;15.80;;;;;;;23.59;80.34;94869.03;5073163;28;20448;-79
2021/06/30 03:13:59;;;;;;;18.00;15.60;;;;;;;23.45;79.21;94870.06;5073606;28;20451;-79
2021/06/30 03:16:26;;;;;;;20.77;17.37;;;;;;;23.40;79.60;94870.69;5073204;28;21118;-80
2021/06/30 03:18:53;;;;;;;24.10;15.70;;;;;;;23.40;80.22;94875.22;5073840;28;20450;-79
2021/06/30 03:21:20;;;;;;;19.27;16.20;;;;;;;23.37;80.32;94886.34;5073250;28;20525;-78
2021/06/30 03:23:48;;;;;;;21.40;16.90;;;;;;;23.51;82.41;94876.44;5021763;28;20446;-78
2021/06/30 03:26:15;;;;;;;17.80;16.10;;;;;;;23.68;80.71;94881.16;5072922;28;20525;-81
2021/06/30 03:28:42;;;;;;;18.90;16.63;;;;;;;23.83;77.79;94870.19;5020939;28;20545;-78
2021/06/30 03:31:09;;;;;;;21.60;15.63;;;;;;;23.93;76.83;94881.28;5072465;28;20979;-78
2021/06/30 03:33:37;;;;;;;18.87;16.17;;;;;;;23.90;77.05;94870.97;5072269;28;20449;-79
2021/06/30 03:36:05;;;;;;;18.67;16.23;;;;;;;24.00;76.63;94883.94;5072487;28;20517;-78
2021/06/30 03:38:33;;;;;;;19.30;15.87;;;;;;;24.12;76.54;94882.22;5084488;28;20445;-78
2021/06/30 03:41:01;;;;;;;19.47;17.50;;;;;;;24.21;75.27;94883.63;5072384;28;20880;-77
2021/06/30 03:43:28;;;;;;;17.10;15.50;;;;;;;24.37;74.29;94877.78;5072434;28;20502;-79
2021/06/30 03:45:56;;;;;;;19.80;17.33;;;;;;;24.47;73.84;94882.69;5021805;28;20450;-79
2021/06/30 03:48:23;;;;;;;18.40;16.60;;;;;;;24.59;72.77;94878.28;5073527;28;20514;-79
2021/06/30 03:50:50;;;;;;;24.20;16.50;;;;;;;24.67;72.71;94867.28;5073122;28;20448;-80
2021/06/30 03:53:16;;;;;;;22.23;15.50;;;;;;;24.71;72.00;94867.66;5073117;28;20575;-79
2021/06/30 03:55:43;;;;;;;16.87;15.10;;;;;;;24.78;71.99;94862.22;5073351;28;20523;-80
2021/06/30 03:58:12;;;;;;;16.80;15.10;;;;;;;24.92;71.51;94872.66;5072983;28;20452;-77
2021/06/30 04:00:39;;;;;;;15.63;14.10;;;;;;;25.05;71.26;94884.34;5072634;28;20484;-77
2021/06/30 04:03:06;;;;;;;17.03;15.30;;;;;;;25.21;69.86;94890.00;5072543;28;21013;-77
2021/06/30 04:05:33;;;;;;;19.43;16.10;;;;;;;25.41;69.50;94880.91;5072831;28;20449;-77
2021/06/30 04:08:00;;;;;;;28.93;16.30;;;;;;;25.61;68.57;94884.22;5072572;28;20448;-77
2021/06/30 04:10:27;;;;;;;19.30;15.43;;;;;;;25.78;67.83;94879.13;5021014;28;20935;-77
2021/06/30 04:12:53;;;;;;;20.13;15.37;;;;;;;26.05;67.49;94882.31;5072519;28;20451;-77
2021/06/30 04:15:22;;;;;;;16.43;14.27;;;;;;;26.21;66.03;94876.31;5073411;28;20520;-77
2021/06/30 04:17:49;;;;;;;16.93;14.33;;;;;;;26.37;65.53;94878.41;5076408;28;20575;-77
2021/06/30 04:20:16;;;;;;;19.50;15.87;;;;;;;26.57;65.18;94871.91;5076912;28;20445;-77
2021/06/30 04:22:43;;;;;;;17.30;15.40;;;;;;;26.80;64.02;94874.66;5076975;28;20528;-77
2021/06/30 04:25:10;;;;;;;21.13;15.60;;;;;;;27.04;63.89;94883.66;5060806;28;20452;-77
2021/06/30 04:27:38;;;;;;;16.80;15.13;;;;;;;27.14;62.59;94882.00;5044595;28;20450;-76
2021/06/30 04:30:09;;;;;;;16.00;14.40;;;;;;;27.30;62.50;94872.44;5096524;28;20447;-78
2021/06/30 04:32:38;;;;;;;19.10;14.00;;;;;;;27.51;61.83;94879.13;5090652;28;20440;-77
2021/06/30 04:35:05;;;;;;;15.83;14.17;;;;;;;27.70;60.69;94891.41;5085640;28;20490;-77
2021/06/30 04:37:32;;;;;;;16.50;14.60;;;;;;;27.92;60.08;94890.81;5076075;28;20678;-77
2021/06/30 04:39:59;;;;;;;14.97;13.60;;;;;;;28.11;59.33;94899.56;5076605;28;20800;-76
2021/06/30 04:42:26;;;;;;;19.67;13.57;;;;;;;28.31;58.50;94898.13;5075206;28;20829;-77
2021/06/30 04:44:53;;;;;;;15.97;13.10;;;;;;;28.49;57.56;94899.81;5075906;28;20527;-76
2021/06/30 04:47:20;;;;;;;15.37;13.87;;;;;;;28.71;57.42;94899.16;5076065;28;20535;-76
2021/06/30 04:49:48;;;;;;;18.70;13.00;;;;;;;28.92;57.45;94896.59;5076162;28;20524;-79
2021/06/30 04:52:15;;;;;;;14.97;13.43;;;;;;;29.14;56.43;94896.69;5087902;28;20439;-80
2021/06/30 04:54:42;;;;;;;15.20;13.50;;;;;;;29.27;55.51;94890.16;5096126;28;20467;-80
2021/06/30 04:57:09;;;;;;;13.73;12.50;;;;;;;29.35;55.39;94889.72;5044200;28;20491;-78
2021/06/30 04:59:36;;;;;;;16.40;14.17;;;;;;;29.48;54.98;94891.28;5096511;28;20447;-80
2021/06/30 05:02:03;;;;;;;19.30;13.13;;;;;;;29.55;54.80;94889.25;5085082;28;20524;-79
2021/06/30 05:04:30;;;;;;;17.03;14.17;;;;;;;29.64;54.87;94892.34;5075158;28;20523;-78
2021/06/30 05:06:59;;;;;;;17.27;13.10;;;;;;;29.64;56.34;94892.34;5039755;28;20460;-78
2021/06/30 05:09:26;;;;;;;15.80;14.10;;;;;;;29.70;55.87;94891.34;5075283;28;20540;-79
2021/06/30 05:11:52;;;;;;;21.33;13.80;;;;;;;29.88;55.67;94893.78;5074899;28;20500;-80
2021/06/30 05:14:19;;;;;;;18.83;13.17;;;;;;;30.06;55.52;94896.19;5074777;28;20443;-80
2021/06/30 05:16:46;;;;;;;14.43;12.93;;;;;;;30.26;54.80;94895.66;5039525;28;20566;-79
2021/06/30 05:19:13;;;;;;;15.03;13.20;;;;;;;30.30;54.00;94896.78;5075539;28;20467;-80
2021/06/30 05:21:40;;;;;;;15.33;13.60;;;;;;;30.03;55.23;94896.72;5076166;28;20913;-81
2021/06/30 05:24:08;;;;;;;16.83;14.30;;;;;;;29.85;55.05;94891.56;5075745;28;20527;-79
2021/06/30 05:26:35;;;;;;;18.53;14.47;;;;;;;29.81;56.38;94893.97;5075661;28;20447;-83
2021/06/30 05:29:03;;;;;;;16.93;15.27;;;;;;;29.64;57.59;94897.75;5075738;28;20443;-83
2021/06/30 05:31:30;;;;;;;17.77;14.63;;;;;;;29.60;57.55;94898.25;5075368;28;20523;-83
2021/06/30 05:33:57;;;;;;;21.47;15.13;;;;;;;29.70;57.93;94896.75;5075392;28;20441;-81
2021/06/30 05:36:24;;;;;;;18.40;14.77;;;;;;;29.73;57.45;94897.06;5075674;28;20488;-81
2021/06/30 05:38:50;;;;;;;20.27;14.70;;;;;;;29.94;57.63;94900.91;5075580;28;20484;-81
2021/06/30 05:41:19;;;;;;;15.50;13.10;;;;;;;30.11;57.21;94896.28;5075380;28;20440;-81
2021/06/30 05:43:46;;;;;;;25.53;14.30;;;;;;;30.40;54.70;94893.38;5075470;28;20512;-80
2021/06/30 05:46:13;;;;;;;16.17;13.17;;;;;;;30.52;55.87;94894.06;5075380;28;20916;-80
2021/06/30 05:48:40;;;;;;;18.87;13.87;;;;;;;30.83;55.05;94901.47;5074729;28;20451;-81
2021/06/30 05:51:07;;;;;;;17.13;14.40;;;;;;;31.18;55.13;94892.03;5074298;28;20447;-81
2021/06/30 05:53:34;;;;;;;18.93;16.87;;;;;;;31.07;52.80;94909.28;5073851;28;20571;-81
2021/06/30 05:56:01;;;;;;;21.20;16.10;;;;;;;30.67;54.42;94902.41;5074727;28;20543;-81
2021/06/30 05:58:29;;;;;;;16.90;15.10;;;;;;;30.86;54.27;94902.84;5073857;28;20575;-81
2021/06/30 06:00:56;;;;;;;19.47;17.00;;;;;;;31.01;54.05;94897.56;5073938;28;20447;-81
2021/06/30 06:03:23;;;;;;;18.47;16.57;;;;;;;30.83;53.78;94901.47;5039022;28;20448;-80
2021/06/30 06:05:50;;;;;;;28.50;18.20;;;;;;;31.02;54.24;94906.53;5074156;28;20456;-80
2021/06/30 06:08:17;;;;;;;24.27;18.00;;;;;;;30.82;53.68;94904.44;5073955;28;20468;-80
2021/06/30 06:10:44;;;;;;;20.70;18.60;;;;;;;31.05;54.25;94897.88;5073865;28;20441;-80
2021/06/30 06:13:11;;;;;;;19.73;15.60;;;;;;;31.31;54.22;94898.94;5074056;28;20807;-80
2021/06/30 06:15:39;;;;;;;24.50;16.90;;;;;;;31.63;52.66;94901.63;5038455;28;20479;-80
2021/06/30 06:18:08;;;;;;;18.60;15.43;;;;;;;31.68;53.73;94896.22;5073930;28;20564;-80
2021/06/30 06:20:35;;;;;;;18.23;16.33;;;;;;;31.79;53.83;94897.94;5073495;28;20449;-80
2021/06/30 06:23:02;;;;;;;22.73;16.23;;;;;;;32.06;51.56;94892.38;5073610;28;20444;-80
2021/06/30 06:25:29;;;;;;;23.40;16.37;;;;;;;31.94;52.36;94903.47;5073417;28;20455;-80
2021/06/30 06:27:56;;;;;;;18.87;16.87;;;;;;;31.89;52.35;94898.03;5073528;28;20955;-80
2021/06/30 06:30:27;;;;;;;21.70;16.07;;;;;;;31.92;52.93;94888.53;5021752;28;20516;-80
2021/06/30 06:32:55;;;;;;;17.43;15.37;;;;;;;31.92;51.08;94892.06;5073340;28;20452;-80
2021/06/30 06:35:22;;;;;;;15.77;14.20;;;;;;;31.81;51.14;94895.81;5021432;28;20536;-80
2021/06/30 06:37:50;;;;;;;20.13;14.17;;;;;;;31.94;52.18;94895.31;5072556;28;20549;-80
2021/06/30 06:40:17;;;;;;;18.97;14.27;;;;;;;32.28;51.46;94892.25;5073500;28;20523;-80
2021/06/30 06:42:44;;;;;;;20.27;15.90;;;;;;;32.54;50.12;94887.72;5073220;28;20451;-80
2021/06/30 06:45:11;;;;;;;16.90;13.80;;;;;;;32.79;49.76;94885.13;5021603;28;20515;-80
2021/06/30 06:47:38;;;;;;;24.03;16.17;;;;;;;33.10;49.57;94885.97;5021656;28;20449;-80
2021/06/30 06:50:08;;;;;;;25.63;14.20;;;;;;;33.26;47.16;94879.47;5072946;28;20473;-80
2021/06/30 06:52:35;;;;;;;15.97;14.47;;;;;;;33.24;48.02;94865.28;5072952;28;20527;-80
2021/06/30 06:55:03;;;;;;;16.80;13.87;;;;;;;33.26;47.94;94874.03;5073029;28;20476;-80
2021/06/30 06:57:30;;;;;;;20.70;16.10;;;;;;;33.21;46.55;94876.72;5072882;28;20488;-80
2021/06/30 06:59:58;;;;;;;15.83;14.20;;;;;;;33.20;47.72;94871.56;5072844;28;20445;-80
2021/06/30 07:02:25;;;;;;;15.33;13.73;;;;;;;33.23;48.17;94862.84;5072661;28;21035;-80
2021/06/30 07:04:52;;;;;;;15.97;14.10;;;;;;;33.40;47.71;94862.59;5072526;28;20466;-80
2021/06/30 07:07:21;;;;;;;19.27;13.00;;;;;;;33.50;48.22;94854.41;5072785;28;20471;-80
2021/06/30 07:09:48;;;;;;;15.60;13.97;;;;;;;33.72;47.65;94852.22;5072421;28;20525;-80
2021/06/30 07:12:15;;;;;;;14.53;13.10;;;;;;;33.91;46.86;94863.38;5072668;28;20456;-80
2021/06/30 07:14:42;;;;;;;22.20;15.67;;;;;;;33.79;46.29;94858.19;5072494;28;20444;-80
2021/06/30 07:17:10;;;;;;;16.63;13.80;;;;;;;33.98;45.64;94858.44;5020947;28;20484;-80
2021/06/30 07:19:36;;;;;;;16.33;14.73;;;;;;;34.01;45.22;94866.06;5072531;28;20520;-80
2021/06/30 07:22:04;;;;;;;26.87;15.00;;;;;;;34.07;45.91;94858.66;5072932;28;20444;-80
2021/06/30 07:24:32;;;;;;;16.53;15.03;;;;;;;34.22;44.36;94857.81;5072762;28;20475;-80
2021/06/30 07:27:01;;;;;;;16.43;14.83;;;;;;;34.35;45.01;94849.88;5072377;28;20459;-80
2021/06/30 07:29:28;;;;;;;19.37;15.60;;;;;;;34.46;44.51;94851.47;5072404;28;20435;-80
2021/06/30 07:31:56;;;;;;;22.43;15.17;;;;;;;34.56;44.91;94857.94;5072805;28;20587;-80
2021/06/30 07:34:23;;;;;;;16.90;15.20;;;;;;;34.55;45.51;94850.88;5072427;28;20476;-81
2021/06/30 07:36:50;;;;;;;14.33;13.10;;;;;;;34.58;43.62;94851.13;5072304;28;20477;-80
2021/06/30 07:39:16;;;;;;;21.03;14.50;;;;;;;34.69;44.17;94846.41;5072331;28;20532;-80
2021/06/30 07:41:45;;;;;;;16.63;14.20;;;;;;;34.69;42.58;94840.97;5072242;28;20528;-80
2021/06/30 07:44:12;;;;;;;16.17;14.57;;;;;;;34.56;42.73;94836.16;5072122;28;20445;-80
2021/06/30 07:46:39;;;;;;;16.27;14.57;;;;;;;34.51;43.15;94830.72;5072180;28;20444;-80
2021/06/30 07:49:07;;;;;;;18.30;15.63;;;;;;;34.53;43.21;94832.06;5072127;28;20445;-80
2021/06/30 07:51:34;;;;;;;20.27;15.67;;;;;;;34.64;44.07;94832.81;5072063;28;20869;-80
2021/06/30 07:54:01;;;;;;;24.77;17.50;;;;;;;34.50;44.89;94826.38;5072033;28;20468;-80
2021/06/30 07:56:37;;;;;;;18.00;16.20;;;;;;;33.30;46.60;94824.50;5020561;28;20451;-80
2021/06/30 07:59:06;;;;;;;20.33;16.30;;;;;;;32.82;47.52;94821.25;5072161;28;20494;-80
2021/06/30 08:01:33;;;;;;;18.10;16.40;;;;;;;32.77;49.22;94821.22;5072018;28;20531;-80
2021/06/30 08:04:01;;;;;;;17.57;15.73;;;;;;;33.04;48.82;94827.22;5072164;28;20531;-80
2021/06/30 08:06:29;;;;;;;16.43;14.80;;;;;;;33.01;49.81;94826.97;5071878;28;20812;-80
2021/06/30 08:08:56;;;;;;;19.03;15.00;;;;;;;33.11;47.86;94825.06;5072165;28;20473;-80
2021/06/30 08:11:24;;;;;;;18.57;16.27;;;;;;;33.25;48.31;94825.31;5072242;28;20445;-80
2021/06/30 08:13:51;;;;;;;17.60;14.90;;;;;;;33.40;46.86;94817.16;5020969;28;20451;-80
2021/06/30 08:16:19;;;;;;;22.87;15.63;;;;;;;33.60;48.11;94821.75;5071967;28;20532;-80
2021/06/30 08:18:47;;;;;;;19.37;14.30;;;;;;;33.55;45.67;94821.78;5071773;28;20583;-80
2021/06/30 08:21:14;;;;;;;16.60;14.73;;;;;;;33.65;44.81;94821.75;5071674;28;20494;-80
2021/06/30 08:23:41;;;;;;;16.00;14.13;;;;;;;33.75;45.62;94821.72;5071941;28;20936;-80
2021/06/30 08:26:09;;;;;;;17.97;15.97;;;;;;;33.36;45.59;94809.84;5071723;28;20528;-80
2021/06/30 08:28:36;;;;;;;17.70;15.77;;;;;;;32.98;48.03;94812.00;5072557;28;20444;-80
2021/06/30 08:31:03;;;;;;;20.87;14.57;;;;;;;33.29;48.68;94812.00;5071961;28;20504;-80
2021/06/30 08:33:32;;;;;;;16.80;14.17;;;;;;;33.08;48.30;94808.47;5071563;28;20445;-80
2021/06/30 08:35:59;;;;;;;29.47;15.90;;;;;;;33.31;47.93;94805.22;5071799;28;20439;-80
2021/06/30 08:38:26;;;;;;;18.53;14.67;;;;;;;33.26;47.54;94808.72;5071748;28;20484;-80
2021/06/30 08:40:54;;;;;;;17.47;14.70;;;;;;;33.48;47.80;94804.91;5071615;28;20433;-80
2021/06/30 08:43:21;;;;;;;16.87;13.23;;;;;;;33.65;47.19;94799.97;5036144;28;20522;-80
2021/06/30 08:45:49;;;;;;;14.43;13.20;;;;;;;33.28;47.96;94796.75;5019883;28;20441;-80
2021/06/30 08:48:17;;;;;;;16.20;13.40;;;;;;;33.46;48.63;94802.47;5020081;28;20453;-80
2021/06/30 08:50:46;;;;;;;16.60;14.90;;;;;;;33.66;47.14;94800.78;5071570;28;20479;-80
2021/06/30 08:53:15;;;;;;;17.20;15.30;;;;;;;33.75;45.80;94794.50;5071654;28;21050;-80
2021/06/30 08:55:44;;;;;;;15.17;13.57;;;;;;;33.90;46.98;94801.84;5071525;28;20479;-80
2021/06/30 08:58:12;;;;;;;18.00;16.23;;;;;;;34.12;47.38;94798.75;5071262;28;20563;-81
2021/06/30 09:00:40;;;;;;;19.70;13.93;;;;;;;34.25;45.34;94798.13;5071398;28;20884;-80
2021/06/30 09:03:12;;;;;;;16.37;14.40;;;;;;;34.24;46.22;94796.50;5075347;28;20429;-80
2021/06/30 09:06:00;;;;;;;15.70;14.27;;;;;;;34.18;46.71;94803.06;5074935;28;20452;-80
2021/06/30 09:08:58;;;;;;;17.47;13.53;;;;;;;33.96;45.61;94798.00;5075003;28;20441;-80
2021/06/30 09:11:27;;;;;;;24.40;12.67;;;;;;;33.69;45.50;94783.91;5039755;28;20440;-80
2021/06/30 09:14:22;;;;;;;19.60;14.27;;;;;;;33.23;44.72;94782.06;5074857;28;20955;-80
2021/06/30 09:16:59;;;;;;;18.83;13.63;;;;;;;33.19;47.00;94780.16;5074790;28;20467;-80
2021/06/30 09:19:53;;;;;;;16.13;14.50;;;;;;;32.61;47.72;94776.88;5074658;28;20480;-80
2021/06/30 09:22:21;;;;;;;16.93;15.13;;;;;;;33.03;48.12;94784.00;5074763;28;20528;-80
2021/06/30 09:24:51;;;;;;;15.33;13.90;;;;;;;33.20;48.21;94784.50;5074700;28;20445;-80
2021/06/30 09:27:19;;;;;;;15.53;12.87;;;;;;;33.24;48.44;94778.25;5074728;28;20452;-80
2021/06/30 09:29:47;;;;;;;16.43;14.50;;;;;;;33.18;51.19;94773.09;5022652;28;20490;-80
2021/06/30 09:32:17;;;;;;;16.60;14.97;;;;;;;32.75;49.47;94774.44;5074508;28;20449;-80
2021/06/30 09:34:44;;;;;;;19.97;15.80;;;;;;;32.42;51.98;94770.34;5074833;28;20449;-80
2021/06/30 09:37:11;;;;;;;15.83;14.33;;;;;;;32.32;51.67;94779.28;5074261;28;20461;-80
2021/06/30 09:39:52;;;;;;;17.40;15.60;;;;;;;32.44;53.56;94774.44;5074559;28;21000;-80
2021/06/30 09:42:22;;;;;;;24.63;17.90;;;;;;;32.10;55.13;94775.94;5074339;28;20527;-80
2021/06/30 09:44:49;;;;;;;18.00;15.10;;;;;;;32.16;55.64;94764.00;5074301;28;20449;-80
2021/06/30 09:47:18;;;;;;;17.13;15.63;;;;;;;32.36;55.96;94764.06;5074319;28;20440;-80
2021/06/30 09:49:45;;;;;;;18.07;15.37;;;;;;;32.10;53.52;94751.50;5074436;28;20539;-80
2021/06/30 09:52:15;;;;;;;18.00;16.10;;;;;;;32.13;55.72;94759.94;5074711;28;20437;-80
2021/06/30 09:54:44;;;;;;;16.60;15.03;;;;;;;32.07;55.98;94758.25;5039084;28;20508;-80
2021/06/30 09:57:13;;;;;;;17.93;15.97;;;;;;;31.86;56.17;94749.25;5074115;28;20449;-80
2021/06/30 09:59:43;;;;;;;25.43;15.40;;;;;;;32.10;57.94;94744.19;5074224;28;20484;-80
2021/06/30 10:02:12;;;;;;;20.03;15.77;;;;;;;32.32;57.48;94738.53;5073879;28;20447;-80
2021/06/30 10:04:41;;;;;;;19.67;15.67;;;;;;;32.15;57.34;94733.31;5074223;28;20433;-80
2021/06/30 10:07:11;;;;;;;17.07;15.20;;;;;;;32.26;56.75;94737.72;5073881;28;20885;-80
2021/06/30 10:09:38;;;;;;;16.53;14.83;;;;;;;32.21;56.18;94734.97;5074131;28;20447;-80
2021/06/30 10:12:09;;;;;;;20.60;16.67;;;;;;;32.34;57.50;94733.66;5073869;28;20532;-80
2021/06/30 10:14:37;;;;;;;16.23;14.67;;;;;;;32.39;55.72;94727.44;5073961;28;20445;-80
2021/06/30 10:17:08;;;;;;;18.43;14.93;;;;;;;32.57;56.98;94719.53;5073805;28;20444;-80
2021/06/30 10:19:35;;;;;;;20.07;13.93;;;;;;;32.80;56.51;94715.50;5073619;28;20837;-80
2021/06/30 10:22:03;;;;;;;15.90;14.27;;;;;;;32.49;57.06;94722.00;5073674;28;20536;-80
2021/06/30 10:24:30;;;;;;;16.00;14.50;;;;;;;32.09;57.04;94706.41;5073601;28;20436;-80
2021/06/30 10:26:58;;;;;;;15.10;13.67;;;;;;;32.31;57.29;94701.59;5073795;28;20524;-80
2021/06/30 10:29:28;;;;;;;14.30;13.10;;;;;;;32.48;56.92;94699.44;5073855;28;20453;-80
2021/06/30 10:32:00;;;;;;;19.30;13.80;;;;;;;32.24;57.87;94698.31;5073741;28;20798;-80
2021/06/30 10:34:37;;;;;;;17.10;13.53;;;;;;;32.28;56.57;94691.28;5073566;28;20859;-80
2021/06/30 10:37:16;;;;;;;14.50;13.20;;;;;;;32.09;58.91;94690.13;5073292;28;20943;-80
2021/06/30 10:39:45;;;;;;;20.80;13.40;;;;;;;32.31;57.02;94699.69;5073470;28;20571;-80
2021/06/30 10:42:32;;;;;;;19.57;12.73;;;;;;;32.30;57.16;94695.34;5073251;28;20531;-81
2021/06/30 10:45:01;;;;;;;14.97;13.17;;;;;;;32.27;57.92;94689.66;5073123;28;20954;-80
2021/06/30 10:47:41;;;;;;;13.17;11.97;;;;;;;32.52;58.09;94684.22;5073035;28;20954;-80
2021/06/30 10:50:38;;;;;;;18.27;13.13;;;;;;;32.75;56.20;94677.41;5073065;28;20448;-80
2021/06/30 10:53:38;;;;;;;15.93;12.33;;;;;;;32.88;56.22;94676.88;4971698;28;20500;-80
2021/06/30 10:56:14;;;;;;;14.47;12.93;;;;;;;33.07;57.27;94679.84;4971665;28;20456;-80
2021/06/30 10:58:43;;;;;;;13.83;12.53;;;;;;;33.07;56.10;94685.28;4971695;28;20847;-80
2021/06/30 11:01:16;;;;;;;14.90;12.63;;;;;;;33.04;56.20;94674.97;4971993;28;20480;-80
2021/06/30 11:03:51;;;;;;;14.97;12.13;;;;;;;32.99;55.44;94674.97;4971765;28;20892;-80
2021/06/30 11:06:28;;;;;;;15.67;13.40;;;;;;;32.83;57.54;94665.19;4955723;28;20447;-80
2021/06/30 11:08:57;;;;;;;14.63;13.27;;;;;;;32.91;55.65;94656.47;4971769;28;20437;-80
2021/06/30 11:11:50;;;;;;;14.40;12.87;;;;;;;33.05;55.05;94663.00;4971731;28;20476;-80
2021/06/30 11:14:19;;;;;;;20.30;13.60;;;;;;;32.87;56.38;94655.41;4971678;28;20989;-80
2021/06/30 11:16:57;;;;;;;13.77;12.47;;;;;;;33.09;55.32;94653.19;4971622;28;20460;-80
2021/06/30 11:19:43;;;;;;;13.33;11.50;;;;;;;33.34;57.50;94646.06;4971581;28;21071;-80
2021/06/30 11:22:27;;;;;;;15.03;13.17;;;;;;;33.44;56.81;94646.00;4971645;28;20451;-80
2021/06/30 11:24:56;;;;;;;14.10;12.63;;;;;;;33.48;55.24;94638.91;4971006;28;20492;-80